createdAt,value
2019-05-23T00:02:27.063Z,8.70
2019-05-23T00:07:45.504Z,8.30
2019-05-23T00:10:35.739Z,8.50
2019-05-23T00:13:39.282Z,8.30
2019-05-23T00:16:09.675Z,8.77
2019-05-23T00:18:38.247Z,9.37
2019-05-23T00:21:08.574Z,8.70
2019-05-23T00:23:39.220Z,8.17
2019-05-23T00:26:07.997Z,8.73
2019-05-23T00:28:37.317Z,7.77
2019-05-23T00:31:07.509Z,8.33
2019-05-23T00:33:37.825Z,8.77
2019-05-23T00:36:07.664Z,8.50
2019-05-23T00:38:36.723Z,8.73
2019-05-23T00:44:03.565Z,8.53
2019-05-23T00:46:32.093Z,8.40
2019-05-23T00:49:01.463Z,9.00
2019-05-23T00:51:31.762Z,8.83
2019-05-23T00:54:01.292Z,8.90
2019-05-23T00:56:29.983Z,8.87
2019-05-23T00:58:58.932Z,9.63
2019-05-23T01:01:28.010Z,9.10
2019-05-23T01:03:56.920Z,9.63
2019-05-23T01:06:25.467Z,9.67
2019-05-23T01:08:54.150Z,9.10
2019-05-23T01:11:24.040Z,10.07
2019-05-23T01:13:52.613Z,10.43
2019-05-23T01:16:21.783Z,9.57
2019-05-23T01:18:52.008Z,10.13
2019-05-23T01:21:22.834Z,9.73
2019-05-23T01:23:55.881Z,10.70
2019-05-23T01:26:24.991Z,9.33
2019-05-23T01:28:53.424Z,10.40
2019-05-23T01:31:24.251Z,9.87
2019-05-23T01:33:54.103Z,10.40
2019-05-23T01:43:22.448Z,9.70
2019-05-23T01:45:51.440Z,10.70
2019-05-23T01:48:20.713Z,10.30
2019-05-23T01:50:50.130Z,10.07
2019-05-23T01:53:19.331Z,11.13
2019-05-23T01:55:48.416Z,10.83
2019-05-23T01:58:17.010Z,12.00
2019-05-23T02:00:47.153Z,11.17
2019-05-23T02:03:16.039Z,10.67
2019-05-23T02:05:45.022Z,11.03
2019-05-23T02:08:15.084Z,8.63
2019-05-23T02:10:43.658Z,10.97
2019-05-23T02:13:12.623Z,10.87
2019-05-23T02:15:41.612Z,10.87
2019-05-23T02:18:10.149Z,10.83
2019-05-23T02:20:39.268Z,11.77
2019-05-23T02:23:07.890Z,12.43
2019-05-23T02:25:36.791Z,11.60
2019-05-23T02:28:06.357Z,11.17
2019-05-23T02:30:36.368Z,11.53
2019-05-23T02:33:05.327Z,12.60
2019-05-23T02:35:34.160Z,12.13
2019-05-23T02:38:39.825Z,12.57
2019-05-23T02:41:26.520Z,11.50
2019-05-23T02:43:58.428Z,12.00
2019-05-23T02:46:31.771Z,11.27
2019-05-23T02:49:04.284Z,13.10
2019-05-23T02:51:37.096Z,12.17
2019-05-23T02:54:07.805Z,12.67
2019-05-23T02:56:38.505Z,12.57
2019-05-23T02:59:13.132Z,12.47
2019-05-23T03:02:15.003Z,11.97
2019-05-23T03:04:45.099Z,11.70
2019-05-23T03:07:14.618Z,12.37
2019-05-23T03:09:43.546Z,12.53
2019-05-23T03:12:13.026Z,11.27
2019-05-23T03:14:43.118Z,18.80
2019-05-23T03:17:15.162Z,27.10
2019-05-23T03:19:56.193Z,16.97
2019-05-23T03:22:48.720Z,12.37
2019-05-23T03:25:26.995Z,14.00
2019-05-23T03:27:56.093Z,13.30
2019-05-23T03:30:26.196Z,11.97
2019-05-23T03:32:59.474Z,19.17
2019-05-23T03:35:42.154Z,15.23
2019-05-23T03:38:11.289Z,16.03
2019-05-23T03:41:00.588Z,14.20
2019-05-23T03:43:29.118Z,15.47
2019-05-23T03:45:59.329Z,16.03
2019-05-23T03:48:28.469Z,15.13
2019-05-23T03:50:57.892Z,16.60
2019-05-23T03:53:28.099Z,17.20
2019-05-23T03:55:57.669Z,15.90
2019-05-23T03:58:27.051Z,16.07
2019-05-23T04:00:57.157Z,15.87
2019-05-23T04:03:29.495Z,14.57
2019-05-23T04:05:58.857Z,13.33
2019-05-23T04:08:28.164Z,14.03
2019-05-23T04:11:22.168Z,14.50
2019-05-23T04:13:51.685Z,13.90
2019-05-23T04:16:30.268Z,13.17
2019-05-23T04:18:56.711Z,13.40
2019-05-23T04:21:26.348Z,12.27
2019-05-23T04:24:07.878Z,12.13
2019-05-23T04:26:37.357Z,11.57
2019-05-23T04:29:06.074Z,11.37
2019-05-23T04:31:35.013Z,11.97
2019-05-23T04:34:03.833Z,11.60
2019-05-23T04:36:32.458Z,11.00
2019-05-23T04:39:00.901Z,9.93
2019-05-23T04:41:29.889Z,11.00
2019-05-23T04:44:00.347Z,9.17
2019-05-23T04:46:29.025Z,9.83
2019-05-23T04:48:58.664Z,9.47
2019-05-23T04:51:28.104Z,9.17
2019-05-23T04:53:56.683Z,8.87
2019-05-23T04:56:25.609Z,8.53
2019-05-23T04:59:13.417Z,8.17
2019-05-23T05:01:42.224Z,8.13
2019-05-23T05:04:10.806Z,8.30
2019-05-23T05:06:39.306Z,8.73
2019-05-23T05:09:10.197Z,8.23
2019-05-23T05:11:39.084Z,7.30
2019-05-23T05:14:07.854Z,7.80
2019-05-23T05:16:36.822Z,7.07
2019-05-23T05:19:05.931Z,7.23
2019-05-23T05:21:36.377Z,7.70
2019-05-23T05:24:11.907Z,7.00
2019-05-23T05:26:40.446Z,7.67
2019-05-23T05:29:09.787Z,7.63
2019-05-23T05:31:38.299Z,6.77
2019-05-23T05:34:06.923Z,6.60
2019-05-23T05:36:35.617Z,7.00
2019-05-23T05:39:06.941Z,7.20
2019-05-23T05:41:35.473Z,7.33
2019-05-23T05:44:23.456Z,7.83
2019-05-23T05:46:52.634Z,7.40
2019-05-23T05:49:21.121Z,6.83
2019-05-23T05:51:50.021Z,7.17
2019-05-23T05:54:18.586Z,7.40
2019-05-23T05:56:47.232Z,8.23
2019-05-23T05:59:15.776Z,7.50
2019-05-23T06:01:44.279Z,7.27
2019-05-23T06:04:13.091Z,8.03
2019-05-23T06:06:43.429Z,7.43
2019-05-23T06:09:22.516Z,8.07
2019-05-23T06:11:50.960Z,8.30
2019-05-23T06:14:19.451Z,8.43
2019-05-23T06:16:48.344Z,8.37
2019-05-23T06:19:17.229Z,8.17
2019-05-23T06:21:46.713Z,8.80
2019-05-23T06:24:15.145Z,8.80
2019-05-23T06:26:44.844Z,9.00
2019-05-23T06:29:13.308Z,8.20
2019-05-23T06:31:42.302Z,8.50
2019-05-23T06:34:11.268Z,9.60
2019-05-23T06:36:39.745Z,9.93
2019-05-23T06:39:10.348Z,9.07
2019-05-23T06:41:39.052Z,9.70
2019-05-23T06:44:09.095Z,10.20
2019-05-23T06:46:37.991Z,9.20
2019-05-23T06:49:06.788Z,10.67
2019-05-23T06:51:35.246Z,9.77
2019-05-23T06:54:04.902Z,8.90
2019-05-23T06:56:33.718Z,10.63
2019-05-23T06:59:02.903Z,10.50
2019-05-23T07:01:31.440Z,10.83
2019-05-23T07:04:00.484Z,10.43
2019-05-23T07:06:29.504Z,10.10
2019-05-23T07:08:59.122Z,9.73
2019-05-23T07:14:26.666Z,10.73
2019-05-23T07:16:55.124Z,10.53
2019-05-23T07:19:23.659Z,10.63
2019-05-23T07:21:53.001Z,10.87
2019-05-23T07:24:21.576Z,10.00
2019-05-23T07:27:04.449Z,10.63
2019-05-23T07:29:33.625Z,10.67
2019-05-23T07:32:22.881Z,11.00
2019-05-23T07:34:51.391Z,11.07
2019-05-23T07:37:23.147Z,10.87
2019-05-23T07:39:52.151Z,10.73
2019-05-23T07:42:20.668Z,10.60
2019-05-23T07:44:51.015Z,11.07
2019-05-23T07:47:20.333Z,10.67
2019-05-23T07:49:49.146Z,10.90
2019-05-23T07:52:36.965Z,10.73
2019-05-23T07:55:24.028Z,11.67
2019-05-23T07:58:20.844Z,11.00
2019-05-23T08:01:17.683Z,11.53
2019-05-23T08:03:50.356Z,10.63
2019-05-23T08:09:10.038Z,10.83
2019-05-23T08:11:38.935Z,9.00
2019-05-23T08:14:11.887Z,7.60
2019-05-23T08:16:38.123Z,6.93
2019-05-23T08:19:06.554Z,7.30
2019-05-23T08:21:35.232Z,11.13
2019-05-23T08:24:05.728Z,7.20
2019-05-23T08:26:35.081Z,7.40
2019-05-23T08:29:24.859Z,7.93
2019-05-23T08:31:35.729Z,7.70
2019-05-23T08:34:06.243Z,7.83
2019-05-23T08:36:35.544Z,7.00
2019-05-23T08:39:25.230Z,6.23
2019-05-23T08:41:54.008Z,8.23
2019-05-23T08:44:22.945Z,6.87
2019-05-23T08:46:52.027Z,8.67
2019-05-23T08:49:20.862Z,8.73
2019-05-23T08:51:49.296Z,9.27
2019-05-23T08:54:17.741Z,8.77
2019-05-23T08:56:46.236Z,8.83
2019-05-23T08:59:15.551Z,7.83
2019-05-23T09:01:44.110Z,8.60
2019-05-23T09:04:12.621Z,9.40
2019-05-23T09:06:41.594Z,9.17
2019-05-23T09:09:28.562Z,8.80
2019-05-23T09:11:42.164Z,8.40
2019-05-23T09:14:10.914Z,8.10
2019-05-23T09:16:39.601Z,8.17
2019-05-23T09:19:08.411Z,8.13
2019-05-23T09:21:37.420Z,9.10
2019-05-23T09:24:06.587Z,8.07
2019-05-23T09:26:35.063Z,8.23
2019-05-23T09:29:04.089Z,8.23
2019-05-23T09:31:33.477Z,8.40
2019-05-23T09:34:01.923Z,7.70
2019-05-23T09:36:30.442Z,7.27
2019-05-23T09:38:58.867Z,6.90
2019-05-23T09:41:27.463Z,7.50
2019-05-23T09:43:55.899Z,6.87
2019-05-23T09:46:24.395Z,7.27
2019-05-23T09:51:52.889Z,7.20
2019-05-23T09:54:20.938Z,8.00
2019-05-23T09:56:50.106Z,7.33
2019-05-23T10:02:08.177Z,7.40
2019-05-23T10:04:36.777Z,8.17
2019-05-23T10:07:05.342Z,7.90
2019-05-23T10:09:33.777Z,8.33
2019-05-23T10:12:02.208Z,8.43
2019-05-23T10:14:35.261Z,7.83
2019-05-23T10:17:03.905Z,10.30
2019-05-23T10:19:32.522Z,8.00
2019-05-23T10:22:01.018Z,7.87
2019-05-23T10:24:29.465Z,7.50
2019-05-23T10:26:57.906Z,6.43
2019-05-23T10:29:26.407Z,8.30
2019-05-23T10:31:54.850Z,8.57
2019-05-23T10:34:23.297Z,8.20
2019-05-23T10:36:51.874Z,8.03
2019-05-23T10:39:20.936Z,8.03
2019-05-23T10:41:49.372Z,7.60
2019-05-23T10:44:37.216Z,8.10
2019-05-23T10:47:05.785Z,8.40
2019-05-23T10:49:54.211Z,8.53
2019-05-23T10:52:23.593Z,8.17
2019-05-23T10:54:52.094Z,7.97
2019-05-23T10:57:21.124Z,7.60
2019-05-23T10:59:52.213Z,7.87
2019-05-23T11:02:21.122Z,7.37
2019-05-23T11:04:49.693Z,7.67
2019-05-23T11:07:38.340Z,8.53
2019-05-23T11:10:07.810Z,8.20
2019-05-23T11:12:36.236Z,7.07
2019-05-23T11:15:06.367Z,7.43
2019-05-23T11:17:35.445Z,6.93
2019-05-23T11:20:26.193Z,8.07
2019-05-23T11:22:54.720Z,6.63
2019-05-23T11:25:24.219Z,7.37
2019-05-23T11:27:56.208Z,7.30
2019-05-23T11:40:33.821Z,6.83
2019-05-23T11:43:02.708Z,5.80
2019-05-23T11:45:32.791Z,6.03
2019-05-23T11:48:01.351Z,6.67
2019-05-23T11:50:30.330Z,6.43
2019-05-23T11:53:14.921Z,5.80
2019-05-23T12:02:38.785Z,6.40
2019-05-23T12:05:09.334Z,6.40
2019-05-23T12:07:38.161Z,5.50
2019-05-23T12:10:07.424Z,6.07
2019-05-23T12:12:38.555Z,6.60
2019-05-23T12:23:42.236Z,6.07
2019-05-23T12:26:10.841Z,4.97
2019-05-23T12:28:39.379Z,6.07
2019-05-23T12:31:09.223Z,5.20
2019-05-23T12:33:37.766Z,6.60
2019-05-23T12:36:06.979Z,5.90
2019-05-23T12:38:35.392Z,5.23
2019-05-23T12:41:05.005Z,5.63
2019-05-23T12:43:33.683Z,5.77
2019-05-23T12:46:02.242Z,5.03
2019-05-23T12:51:46.018Z,5.37
2019-05-23T12:54:14.485Z,4.90
2019-05-23T12:56:42.943Z,5.93
2019-05-23T12:59:12.109Z,5.63
2019-05-23T13:01:42.247Z,6.73
2019-05-23T13:04:10.955Z,6.37
2019-05-23T13:06:39.722Z,5.60
2019-05-23T13:09:09.399Z,6.03
2019-05-23T13:11:38.691Z,6.40
2019-05-23T13:14:09.670Z,5.37
2019-05-23T13:16:38.242Z,5.30
2019-05-23T13:19:06.728Z,5.67
2019-05-23T13:21:35.257Z,5.70
2019-05-23T13:24:03.856Z,5.40
2019-05-23T13:26:32.445Z,5.60
2019-05-23T13:29:00.890Z,5.43
2019-05-23T13:31:29.776Z,6.37
2019-05-23T13:33:58.266Z,5.97
2019-05-23T13:36:26.716Z,5.00
2019-05-23T13:38:55.164Z,5.20
2019-05-23T13:41:23.821Z,5.40
2019-05-23T13:43:52.325Z,5.77
2019-05-23T13:46:20.752Z,5.97
2019-05-23T13:48:49.174Z,5.80
2019-05-23T13:51:17.693Z,5.23
2019-05-23T13:53:46.107Z,5.20
2019-05-23T13:56:14.600Z,5.43
2019-05-23T13:58:43.394Z,5.10
2019-05-23T14:01:11.973Z,4.57
2019-05-23T14:03:40.648Z,5.23
2019-05-23T14:06:09.543Z,5.27
2019-05-23T14:08:37.997Z,5.13
2019-05-23T14:11:06.531Z,4.60
2019-05-23T14:13:35.082Z,5.03
2019-05-23T14:16:05.720Z,4.80
2019-05-23T14:18:36.189Z,5.13
2019-05-23T14:21:04.853Z,5.63
2019-05-23T14:23:33.961Z,5.30
2019-05-23T14:26:02.808Z,4.80
2019-05-23T14:28:31.412Z,3.90
2019-05-23T14:31:11.248Z,5.60
2019-05-23T14:33:44.010Z,4.73
2019-05-23T14:36:19.993Z,6.23
2019-05-23T14:38:48.469Z,5.40
2019-05-23T14:41:17.046Z,5.10
2019-05-23T14:43:47.144Z,5.70
2019-05-23T14:46:17.229Z,5.70
2019-05-23T14:49:03.367Z,5.20
2019-05-23T14:54:41.764Z,5.10
2019-05-23T14:57:11.130Z,4.80
2019-05-23T14:59:39.913Z,4.10
2019-05-23T15:02:09.999Z,4.73
2019-05-23T15:04:38.507Z,5.40
2019-05-23T15:07:07.127Z,5.30
2019-05-23T15:09:35.672Z,5.30
2019-05-23T15:12:05.242Z,5.23
2019-05-23T15:14:33.875Z,5.10
2019-05-23T15:17:02.306Z,5.03
2019-05-23T15:19:41.698Z,4.97
2019-05-23T15:22:01.144Z,4.90
2019-05-23T15:24:30.290Z,5.33
2019-05-23T15:27:00.020Z,5.33
2019-05-23T15:29:29.372Z,5.33
2019-05-23T15:32:17.526Z,5.17
2019-05-23T15:34:46.029Z,5.80
2019-05-23T15:37:14.476Z,4.73
2019-05-23T15:39:42.907Z,5.07
2019-05-23T15:42:11.347Z,5.37
2019-05-23T15:44:59.271Z,6.10
2019-05-23T15:47:29.464Z,5.20
2019-05-23T15:50:21.647Z,5.13
2019-05-23T15:53:27.519Z,3.77
2019-05-23T15:56:26.628Z,5.40
2019-05-23T15:58:43.171Z,5.50
2019-05-23T16:01:13.785Z,5.57
2019-05-23T16:04:03.209Z,4.00
2019-05-23T16:06:33.862Z,5.77
2019-05-23T16:09:02.363Z,5.27
2019-05-23T16:11:50.492Z,4.90
2019-05-23T16:21:49.413Z,5.63
2019-05-23T16:24:18.207Z,5.67
2019-05-23T16:26:47.317Z,5.13
2019-05-23T16:29:16.287Z,4.70
2019-05-23T16:31:44.896Z,5.83
2019-05-23T16:34:13.317Z,5.57
2019-05-23T16:36:41.827Z,5.80
2019-05-23T16:39:10.361Z,6.80
2019-05-23T16:41:38.916Z,5.67
2019-05-23T16:44:07.358Z,5.60
2019-05-23T16:46:35.812Z,5.63
2019-05-23T16:49:04.302Z,5.70
2019-05-23T16:51:38.892Z,5.43
2019-05-23T16:54:07.766Z,5.90
2019-05-23T16:56:49.967Z,5.60
2019-05-23T17:02:29.764Z,5.60
2019-05-23T17:05:09.947Z,5.60
2019-05-23T17:10:34.415Z,5.00
2019-05-23T17:13:05.090Z,5.13
2019-05-23T17:21:50.958Z,5.10
2019-05-23T17:24:30.006Z,5.80
2019-05-23T17:27:28.465Z,5.50
2019-05-23T17:29:59.471Z,5.00
2019-05-23T17:32:29.561Z,5.43
2019-05-23T17:34:58.470Z,4.97
2019-05-23T17:37:46.376Z,5.00
2019-05-23T17:40:24.316Z,4.93
2019-05-23T17:42:46.021Z,5.33
2019-05-23T17:45:15.478Z,5.50
2019-05-23T17:48:04.020Z,5.50
2019-05-23T17:50:34.839Z,5.53
2019-05-23T17:53:02.876Z,5.07
2019-05-23T17:55:31.948Z,5.23
2019-05-23T17:58:38.730Z,5.67
2019-05-23T18:01:09.198Z,5.50
2019-05-23T18:03:38.152Z,5.27
2019-05-23T18:06:07.966Z,4.93
2019-05-23T18:08:40.161Z,5.20
2019-05-23T18:11:09.066Z,5.83
2019-05-23T18:13:57.074Z,4.90
2019-05-23T18:16:27.946Z,4.90
2019-05-23T18:18:57.052Z,5.20
2019-05-23T18:21:28.405Z,4.87
2019-05-23T18:23:57.855Z,5.23
2019-05-23T18:26:36.015Z,5.07
2019-05-23T18:29:06.645Z,5.00
2019-05-23T18:31:37.170Z,5.73
2019-05-23T18:34:08.003Z,5.23
2019-05-23T18:39:34.059Z,5.53
2019-05-23T18:42:02.872Z,5.40
2019-05-23T18:44:31.516Z,5.90
2019-05-23T18:47:13.622Z,5.70
2019-05-23T18:49:42.578Z,5.50
2019-05-23T18:52:12.573Z,5.70
2019-05-23T18:54:48.937Z,5.80
2019-05-23T18:57:38.203Z,5.17
2019-05-23T19:00:09.070Z,5.20
2019-05-23T19:02:57.397Z,5.70
2019-05-23T19:05:41.033Z,5.97
2019-05-23T19:08:10.457Z,5.83
2019-05-23T19:11:00.599Z,5.87
2019-05-23T19:13:29.235Z,6.37
2019-05-23T19:15:57.762Z,5.90
2019-05-23T19:18:45.712Z,5.50
2019-05-23T19:21:14.792Z,5.30
2019-05-23T19:23:43.733Z,4.83
2019-05-23T19:26:12.597Z,4.80
2019-05-23T19:28:43.143Z,5.00
2019-05-23T19:31:32.918Z,4.80
2019-05-23T19:34:12.300Z,4.57
2019-05-23T19:36:41.365Z,5.37
2019-05-23T19:39:29.326Z,5.23
2019-05-23T19:41:58.029Z,5.40
2019-05-23T19:44:26.587Z,5.20
2019-05-23T19:46:55.537Z,5.58
2019-05-23T19:49:27.169Z,5.07
2019-05-23T19:51:55.434Z,5.97
2019-05-23T19:54:25.928Z,4.80
2019-05-23T19:56:55.277Z,4.80
2019-05-23T19:59:24.655Z,4.80
2019-05-23T20:07:54.069Z,4.13
2019-05-23T20:10:25.584Z,4.43
2019-05-23T20:12:55.088Z,4.70
2019-05-23T20:15:25.458Z,4.90
2019-05-23T20:17:54.532Z,5.27
2019-05-23T20:20:24.108Z,5.33
2019-05-23T20:23:20.054Z,5.23
2019-05-23T20:25:52.433Z,4.50
2019-05-23T20:28:24.132Z,5.17
2019-05-23T20:33:40.874Z,5.20
2019-05-23T20:36:12.436Z,5.17
2019-05-23T20:38:41.203Z,5.47
2019-05-23T20:41:09.861Z,5.40
2019-05-23T20:43:38.309Z,5.57
2019-05-23T20:46:06.729Z,5.63
2019-05-23T20:48:54.978Z,5.60
2019-05-23T20:51:25.748Z,5.70
2019-05-23T20:53:54.363Z,5.73
2019-05-23T20:56:23.240Z,6.00
2019-05-23T20:58:52.986Z,5.57
2019-05-23T21:01:23.249Z,5.57
2019-05-23T21:03:52.877Z,6.40
2019-05-23T21:06:21.436Z,5.27
2019-05-23T21:08:50.233Z,5.47
2019-05-23T21:11:19.063Z,5.70
2019-05-23T21:13:47.788Z,5.83
2019-05-23T21:16:17.083Z,5.77
2019-05-23T21:18:49.270Z,5.43
2019-05-23T21:21:16.501Z,5.67
2019-05-23T21:23:47.853Z,5.50
2019-05-23T21:26:17.377Z,5.93
2019-05-23T21:28:47.091Z,5.20
2019-05-23T21:31:18.168Z,5.20
2019-05-23T21:33:47.240Z,6.07
2019-05-23T21:36:15.890Z,5.50
2019-05-23T21:38:44.421Z,6.00
2019-05-23T21:41:12.890Z,5.90
2019-05-23T21:43:42.091Z,6.57
2019-05-23T21:46:12.087Z,6.00
2019-05-23T21:48:40.624Z,6.47
2019-05-23T21:51:09.817Z,5.40
2019-05-23T21:53:38.600Z,5.90
2019-05-23T21:56:16.778Z,6.23
2019-05-23T21:58:47.888Z,5.87
2019-05-23T22:01:21.676Z,6.33
2019-05-23T22:04:25.445Z,5.63
2019-05-23T22:06:58.311Z,4.83
2019-05-23T22:09:27.137Z,4.67
2019-05-23T22:12:15.201Z,5.67
2019-05-23T22:14:44.265Z,5.10
2019-05-23T22:17:12.721Z,4.80
2019-05-23T22:19:41.504Z,4.50
2019-05-23T22:22:10.571Z,4.73
2019-05-23T22:24:39.029Z,4.70
2019-05-23T22:27:09.107Z,4.93
2019-05-23T22:29:37.937Z,4.83
2019-05-23T22:32:07.806Z,5.30
2019-05-23T22:34:37.887Z,5.10
2019-05-23T22:37:08.033Z,6.03
2019-05-23T22:39:36.467Z,6.20
2019-05-23T22:42:25.169Z,6.43
2019-05-23T22:44:53.801Z,6.27
2019-05-23T22:47:22.518Z,6.93
2019-05-23T22:49:50.979Z,6.90
2019-05-23T22:52:41.548Z,6.27
2019-05-23T22:55:10.132Z,6.60
2019-05-23T22:57:38.842Z,7.10
2019-05-23T23:00:07.517Z,6.87
2019-05-23T23:02:36.000Z,7.60
2019-05-23T23:05:04.868Z,6.53
2019-05-23T23:07:33.576Z,7.03
2019-05-23T23:10:02.035Z,7.37
2019-05-23T23:12:32.403Z,7.33
2019-05-23T23:15:01.130Z,6.77
2019-05-23T23:17:30.641Z,6.70
2019-05-23T23:19:59.110Z,7.60
2019-05-23T23:22:27.570Z,7.20
2019-05-23T23:24:56.143Z,6.67
2019-05-23T23:27:24.585Z,6.67
2019-05-23T23:29:53.051Z,6.77
2019-05-23T23:32:21.627Z,7.13
2019-05-23T23:34:50.229Z,7.30
2019-05-23T23:37:18.703Z,7.13
2019-05-23T23:39:47.317Z,6.97
2019-05-23T23:42:16.232Z,7.40
2019-05-23T23:48:01.791Z,7.50
2019-05-23T23:50:50.146Z,7.63
2019-05-23T23:53:41.136Z,7.20
2019-05-23T23:59:04.760Z,7.77
